sensor_id;sensor_type;location;lat;lon;timestamp;P1;durP1;ratioP1;P2;durP2;ratioP2
56116;SDS011;41989;45.356;20.392;2023-12-29T00:01:59;220.73;;;132.38;;
56116;SDS011;41989;45.356;20.392;2023-12-29T00:04:25;202.82;;;126.68;;
56116;SDS011;41989;45.356;20.392;2023-12-29T00:06:51;252.52;;;144.30;;
56116;SDS011;41989;45.356;20.392;2023-12-29T00:09:17;252.40;;;150.32;;
56116;SDS011;41989;45.356;20.392;2023-12-29T00:11:47;270.23;;;161.02;;
56116;SDS011;41989;45.356;20.392;2023-12-29T00:14:13;251.38;;;146.27;;
56116;SDS011;41989;45.356;20.392;2023-12-29T00:16:39;229.48;;;136.50;;
56116;SDS011;41989;45.356;20.392;2023-12-29T00:19:05;251.90;;;144.40;;
56116;SDS011;41989;45.356;20.392;2023-12-29T00:21:31;238.95;;;143.23;;
56116;SDS011;41989;45.356;20.392;2023-12-29T00:23:58;211.95;;;129.07;;
56116;SDS011;41989;45.356;20.392;2023-12-29T00:26:24;183.70;;;115.63;;
56116;SDS011;41989;45.356;20.392;2023-12-29T00:28:50;188.18;;;117.90;;
56116;SDS011;41989;45.356;20.392;2023-12-29T00:31:16;168.30;;;109.38;;
56116;SDS011;41989;45.356;20.392;2023-12-29T00:33:43;189.13;;;114.68;;
56116;SDS011;41989;45.356;20.392;2023-12-29T00:36:15;189.48;;;116.95;;
56116;SDS011;41989;45.356;20.392;2023-12-29T00:38:41;192.52;;;119.30;;
56116;SDS011;41989;45.356;20.392;2023-12-29T00:41:08;212.50;;;126.57;;
56116;SDS011;41989;45.356;20.392;2023-12-29T00:43:34;229.15;;;134.32;;
56116;SDS011;41989;45.356;20.392;2023-12-29T00:46:04;225.85;;;130.38;;
56116;SDS011;41989;45.356;20.392;2023-12-29T00:48:33;239.52;;;139.10;;
56116;SDS011;41989;45.356;20.392;2023-12-29T00:51:02;242.10;;;140.85;;
56116;SDS011;41989;45.356;20.392;2023-12-29T00:53:28;235.38;;;138.20;;
56116;SDS011;41989;45.356;20.392;2023-12-29T00:55:57;221.77;;;130.00;;
56116;SDS011;41989;45.356;20.392;2023-12-29T00:58:23;187.80;;;117.78;;
56116;SDS011;41989;45.356;20.392;2023-12-29T01:00:49;218.40;;;129.77;;
56116;SDS011;41989;45.356;20.392;2023-12-29T01:03:15;230.48;;;138.20;;
56116;SDS011;41989;45.356;20.392;2023-12-29T01:05:41;216.75;;;133.98;;
56116;SDS011;41989;45.356;20.392;2023-12-29T01:08:07;238.68;;;138.90;;
56116;SDS011;41989;45.356;20.392;2023-12-29T01:10:33;234.90;;;135.93;;
56116;SDS011;41989;45.356;20.392;2023-12-29T01:12:59;249.43;;;142.15;;
56116;SDS011;41989;45.356;20.392;2023-12-29T01:15:25;246.85;;;148.23;;
56116;SDS011;41989;45.356;20.392;2023-12-29T01:17:53;261.08;;;149.35;;
56116;SDS011;41989;45.356;20.392;2023-12-29T01:20:19;250.13;;;143.65;;
56116;SDS011;41989;45.356;20.392;2023-12-29T01:22:45;232.80;;;138.93;;
56116;SDS011;41989;45.356;20.392;2023-12-29T01:25:11;235.23;;;135.45;;
56116;SDS011;41989;45.356;20.392;2023-12-29T01:27:38;217.18;;;132.35;;
56116;SDS011;41989;45.356;20.392;2023-12-29T01:30:04;213.57;;;126.75;;
56116;SDS011;41989;45.356;20.392;2023-12-29T01:32:30;204.55;;;124.65;;
56116;SDS011;41989;45.356;20.392;2023-12-29T01:34:56;205.60;;;124.35;;
56116;SDS011;41989;45.356;20.392;2023-12-29T01:37:22;203.30;;;127.13;;
56116;SDS011;41989;45.356;20.392;2023-12-29T01:39:48;202.40;;;126.97;;
56116;SDS011;41989;45.356;20.392;2023-12-29T01:42:15;203.38;;;121.97;;
56116;SDS011;41989;45.356;20.392;2023-12-29T01:44:41;215.75;;;129.63;;
56116;SDS011;41989;45.356;20.392;2023-12-29T01:47:12;216.93;;;130.00;;
56116;SDS011;41989;45.356;20.392;2023-12-29T01:49:40;224.13;;;132.38;;
56116;SDS011;41989;45.356;20.392;2023-12-29T01:52:06;252.15;;;139.50;;
56116;SDS011;41989;45.356;20.392;2023-12-29T01:54:34;231.13;;;130.80;;
56116;SDS011;41989;45.356;20.392;2023-12-29T01:57:01;231.65;;;130.43;;
56116;SDS011;41989;45.356;20.392;2023-12-29T01:59:28;240.02;;;132.68;;
56116;SDS011;41989;45.356;20.392;2023-12-29T02:01:54;238.18;;;133.50;;
56116;SDS011;41989;45.356;20.392;2023-12-29T02:04:20;242.27;;;134.55;;
56116;SDS011;41989;45.356;20.392;2023-12-29T02:06:48;234.60;;;137.10;;
56116;SDS011;41989;45.356;20.392;2023-12-29T02:09:14;244.18;;;137.90;;
56116;SDS011;41989;45.356;20.392;2023-12-29T02:11:42;247.85;;;141.75;;
56116;SDS011;41989;45.356;20.392;2023-12-29T02:14:09;229.60;;;131.95;;
56116;SDS011;41989;45.356;20.392;2023-12-29T02:16:54;240.57;;;135.93;;
56116;SDS011;41989;45.356;20.392;2023-12-29T02:22:04;237.55;;;132.63;;
56116;SDS011;41989;45.356;20.392;2023-12-29T02:24:30;244.25;;;137.15;;
56116;SDS011;41989;45.356;20.392;2023-12-29T02:26:57;244.65;;;137.77;;
56116;SDS011;41989;45.356;20.392;2023-12-29T02:29:25;251.82;;;137.45;;
56116;SDS011;41989;45.356;20.392;2023-12-29T02:31:52;248.75;;;138.85;;
56116;SDS011;41989;45.356;20.392;2023-12-29T02:34:19;243.82;;;140.80;;
56116;SDS011;41989;45.356;20.392;2023-12-29T02:36:45;255.10;;;138.85;;
56116;SDS011;41989;45.356;20.392;2023-12-29T02:39:12;257.50;;;139.50;;
56116;SDS011;41989;45.356;20.392;2023-12-29T02:41:38;241.35;;;140.23;;
56116;SDS011;41989;45.356;20.392;2023-12-29T02:44:04;265.27;;;144.88;;
56116;SDS011;41989;45.356;20.392;2023-12-29T02:46:31;259.55;;;148.23;;
56116;SDS011;41989;45.356;20.392;2023-12-29T02:48:57;277.30;;;155.82;;
56116;SDS011;41989;45.356;20.392;2023-12-29T02:51:24;281.05;;;161.63;;
56116;SDS011;41989;45.356;20.392;2023-12-29T02:53:50;283.48;;;161.73;;
56116;SDS011;41989;45.356;20.392;2023-12-29T02:56:16;271.35;;;157.27;;
56116;SDS011;41989;45.356;20.392;2023-12-29T02:58:43;278.85;;;155.85;;
56116;SDS011;41989;45.356;20.392;2023-12-29T03:01:11;273.35;;;156.85;;
56116;SDS011;41989;45.356;20.392;2023-12-29T03:03:37;276.48;;;158.77;;
56116;SDS011;41989;45.356;20.392;2023-12-29T03:06:05;279.38;;;158.10;;
56116;SDS011;41989;45.356;20.392;2023-12-29T03:08:31;299.65;;;169.15;;
56116;SDS011;41989;45.356;20.392;2023-12-29T03:10:57;289.70;;;164.30;;
56116;SDS011;41989;45.356;20.392;2023-12-29T03:13:24;295.67;;;171.10;;
56116;SDS011;41989;45.356;20.392;2023-12-29T03:15:50;276.25;;;161.07;;
56116;SDS011;41989;45.356;20.392;2023-12-29T03:18:16;295.60;;;161.82;;
56116;SDS011;41989;45.356;20.392;2023-12-29T03:20:42;274.92;;;155.50;;
56116;SDS011;41989;45.356;20.392;2023-12-29T03:23:08;275.77;;;159.77;;
56116;SDS011;41989;45.356;20.392;2023-12-29T03:25:34;280.85;;;163.98;;
56116;SDS011;41989;45.356;20.392;2023-12-29T03:28:01;282.95;;;155.90;;
56116;SDS011;41989;45.356;20.392;2023-12-29T03:30:27;290.27;;;166.05;;
56116;SDS011;41989;45.356;20.392;2023-12-29T03:32:53;278.05;;;160.35;;
56116;SDS011;41989;45.356;20.392;2023-12-29T03:35:19;294.85;;;159.68;;
56116;SDS011;41989;45.356;20.392;2023-12-29T03:37:45;277.25;;;162.77;;
56116;SDS011;41989;45.356;20.392;2023-12-29T03:40:11;283.75;;;157.02;;
56116;SDS011;41989;45.356;20.392;2023-12-29T03:42:37;274.95;;;159.98;;
56116;SDS011;41989;45.356;20.392;2023-12-29T03:45:04;277.77;;;157.52;;
56116;SDS011;41989;45.356;20.392;2023-12-29T03:47:30;285.35;;;162.73;;
56116;SDS011;41989;45.356;20.392;2023-12-29T03:49:57;281.42;;;158.00;;
56116;SDS011;41989;45.356;20.392;2023-12-29T03:52:25;292.38;;;159.23;;
56116;SDS011;41989;45.356;20.392;2023-12-29T03:54:51;275.90;;;157.80;;
56116;SDS011;41989;45.356;20.392;2023-12-29T03:57:17;281.05;;;161.15;;
56116;SDS011;41989;45.356;20.392;2023-12-29T03:59:43;266.33;;;157.57;;
56116;SDS011;41989;45.356;20.392;2023-12-29T04:02:10;282.17;;;159.73;;
56116;SDS011;41989;45.356;20.392;2023-12-29T04:04:36;276.73;;;154.80;;
56116;SDS011;41989;45.356;20.392;2023-12-29T04:07:03;277.80;;;159.93;;
56116;SDS011;41989;45.356;20.392;2023-12-29T04:09:30;288.95;;;162.05;;
56116;SDS011;41989;45.356;20.392;2023-12-29T04:11:56;316.33;;;187.15;;
56116;SDS011;41989;45.356;20.392;2023-12-29T04:14:22;312.00;;;178.63;;
56116;SDS011;41989;45.356;20.392;2023-12-29T04:16:48;303.45;;;176.43;;
56116;SDS011;41989;45.356;20.392;2023-12-29T04:19:14;307.70;;;178.00;;
56116;SDS011;41989;45.356;20.392;2023-12-29T04:21:40;309.23;;;174.75;;
56116;SDS011;41989;45.356;20.392;2023-12-29T04:24:06;306.63;;;174.00;;
56116;SDS011;41989;45.356;20.392;2023-12-29T04:26:36;277.00;;;155.50;;
56116;SDS011;41989;45.356;20.392;2023-12-29T04:29:02;274.13;;;155.32;;
56116;SDS011;41989;45.356;20.392;2023-12-29T04:31:28;266.58;;;154.25;;
56116;SDS011;41989;45.356;20.392;2023-12-29T04:33:54;306.35;;;172.75;;
56116;SDS011;41989;45.356;20.392;2023-12-29T04:36:21;292.73;;;165.27;;
56116;SDS011;41989;45.356;20.392;2023-12-29T04:38:47;295.00;;;168.60;;
56116;SDS011;41989;45.356;20.392;2023-12-29T04:41:13;299.70;;;172.55;;
56116;SDS011;41989;45.356;20.392;2023-12-29T04:43:39;287.75;;;164.68;;
56116;SDS011;41989;45.356;20.392;2023-12-29T04:46:05;271.33;;;152.55;;
56116;SDS011;41989;45.356;20.392;2023-12-29T04:48:32;270.73;;;154.23;;
56116;SDS011;41989;45.356;20.392;2023-12-29T04:50:58;260.00;;;149.40;;
56116;SDS011;41989;45.356;20.392;2023-12-29T04:53:24;267.90;;;153.10;;
56116;SDS011;41989;45.356;20.392;2023-12-29T04:55:50;275.52;;;152.07;;
56116;SDS011;41989;45.356;20.392;2023-12-29T04:58:16;298.05;;;164.15;;
56116;SDS011;41989;45.356;20.392;2023-12-29T05:00:42;329.23;;;177.23;;
56116;SDS011;41989;45.356;20.392;2023-12-29T05:03:08;360.20;;;189.25;;
56116;SDS011;41989;45.356;20.392;2023-12-29T05:05:35;329.38;;;182.50;;
56116;SDS011;41989;45.356;20.392;2023-12-29T05:08:01;314.23;;;177.80;;
56116;SDS011;41989;45.356;20.392;2023-12-29T05:10:28;307.55;;;177.77;;
56116;SDS011;41989;45.356;20.392;2023-12-29T05:12:54;305.65;;;170.85;;
56116;SDS011;41989;45.356;20.392;2023-12-29T05:15:20;297.52;;;162.73;;
56116;SDS011;41989;45.356;20.392;2023-12-29T05:17:46;289.50;;;160.07;;
56116;SDS011;41989;45.356;20.392;2023-12-29T05:20:12;291.58;;;162.45;;
56116;SDS011;41989;45.356;20.392;2023-12-29T05:22:38;292.58;;;159.52;;
56116;SDS011;41989;45.356;20.392;2023-12-29T05:25:04;286.77;;;157.50;;
56116;SDS011;41989;45.356;20.392;2023-12-29T05:27:31;299.15;;;160.18;;
56116;SDS011;41989;45.356;20.392;2023-12-29T05:29:59;272.23;;;152.38;;
56116;SDS011;41989;45.356;20.392;2023-12-29T05:32:28;263.52;;;152.30;;
56116;SDS011;41989;45.356;20.392;2023-12-29T05:34:54;282.05;;;155.90;;
56116;SDS011;41989;45.356;20.392;2023-12-29T05:37:20;267.08;;;150.50;;
56116;SDS011;41989;45.356;20.392;2023-12-29T05:39:46;259.65;;;148.20;;
56116;SDS011;41989;45.356;20.392;2023-12-29T05:42:12;249.52;;;141.32;;
56116;SDS011;41989;45.356;20.392;2023-12-29T05:44:38;252.93;;;142.07;;
56116;SDS011;41989;45.356;20.392;2023-12-29T05:47:05;235.90;;;139.73;;
56116;SDS011;41989;45.356;20.392;2023-12-29T05:49:31;242.10;;;140.20;;
56116;SDS011;41989;45.356;20.392;2023-12-29T05:52:02;228.25;;;131.88;;
56116;SDS011;41989;45.356;20.392;2023-12-29T05:54:29;219.95;;;129.52;;
56116;SDS011;41989;45.356;20.392;2023-12-29T05:56:55;224.10;;;130.75;;
56116;SDS011;41989;45.356;20.392;2023-12-29T05:59:21;219.50;;;129.68;;
56116;SDS011;41989;45.356;20.392;2023-12-29T06:01:47;213.48;;;126.68;;
56116;SDS011;41989;45.356;20.392;2023-12-29T06:04:13;215.05;;;127.93;;
56116;SDS011;41989;45.356;20.392;2023-12-29T06:06:41;239.02;;;139.05;;
56116;SDS011;41989;45.356;20.392;2023-12-29T06:09:08;225.23;;;137.80;;
56116;SDS011;41989;45.356;20.392;2023-12-29T06:11:35;232.85;;;138.25;;
56116;SDS011;41989;45.356;20.392;2023-12-29T06:14:01;226.27;;;135.75;;
56116;SDS011;41989;45.356;20.392;2023-12-29T06:16:28;223.25;;;133.02;;
56116;SDS011;41989;45.356;20.392;2023-12-29T06:18:55;223.10;;;135.25;;
56116;SDS011;41989;45.356;20.392;2023-12-29T06:21:21;206.60;;;129.90;;
56116;SDS011;41989;45.356;20.392;2023-12-29T06:23:47;195.50;;;121.55;;
56116;SDS011;41989;45.356;20.392;2023-12-29T06:26:17;198.45;;;120.65;;
56116;SDS011;41989;45.356;20.392;2023-12-29T06:28:44;199.90;;;118.40;;
56116;SDS011;41989;45.356;20.392;2023-12-29T06:31:10;194.00;;;118.57;;
56116;SDS011;41989;45.356;20.392;2023-12-29T06:33:36;201.15;;;120.00;;
56116;SDS011;41989;45.356;20.392;2023-12-29T06:36:02;187.98;;;117.43;;
56116;SDS011;41989;45.356;20.392;2023-12-29T06:38:29;187.45;;;117.32;;
56116;SDS011;41989;45.356;20.392;2023-12-29T06:40:55;186.77;;;117.47;;
56116;SDS011;41989;45.356;20.392;2023-12-29T06:43:21;184.02;;;116.78;;
56116;SDS011;41989;45.356;20.392;2023-12-29T06:45:47;175.93;;;113.18;;
56116;SDS011;41989;45.356;20.392;2023-12-29T06:48:13;170.95;;;108.43;;
56116;SDS011;41989;45.356;20.392;2023-12-29T06:50:39;180.80;;;113.07;;
56116;SDS011;41989;45.356;20.392;2023-12-29T06:53:05;163.38;;;104.18;;
56116;SDS011;41989;45.356;20.392;2023-12-29T06:55:32;169.05;;;107.85;;
56116;SDS011;41989;45.356;20.392;2023-12-29T06:57:58;166.60;;;106.03;;
56116;SDS011;41989;45.356;20.392;2023-12-29T07:00:24;163.15;;;106.00;;
56116;SDS011;41989;45.356;20.392;2023-12-29T07:02:50;173.18;;;110.72;;
56116;SDS011;41989;45.356;20.392;2023-12-29T07:05:16;170.88;;;110.05;;
56116;SDS011;41989;45.356;20.392;2023-12-29T07:07:43;158.93;;;105.47;;
56116;SDS011;41989;45.356;20.392;2023-12-29T07:10:11;168.18;;;110.93;;
56116;SDS011;41989;45.356;20.392;2023-12-29T07:12:38;164.05;;;103.03;;
56116;SDS011;41989;45.356;20.392;2023-12-29T07:15:05;158.50;;;103.90;;
56116;SDS011;41989;45.356;20.392;2023-12-29T07:17:31;161.90;;;106.07;;
56116;SDS011;41989;45.356;20.392;2023-12-29T07:19:57;184.95;;;114.80;;
56116;SDS011;41989;45.356;20.392;2023-12-29T07:22:23;153.18;;;100.95;;
56116;SDS011;41989;45.356;20.392;2023-12-29T07:24:49;155.35;;;99.65;;
56116;SDS011;41989;45.356;20.392;2023-12-29T07:27:16;157.38;;;100.68;;
56116;SDS011;41989;45.356;20.392;2023-12-29T07:29:42;153.07;;;100.50;;
56116;SDS011;41989;45.356;20.392;2023-12-29T07:32:08;156.23;;;105.90;;
56116;SDS011;41989;45.356;20.392;2023-12-29T07:34:34;153.02;;;104.07;;
56116;SDS011;41989;45.356;20.392;2023-12-29T07:37:00;161.35;;;105.72;;
56116;SDS011;41989;45.356;20.392;2023-12-29T07:39:26;145.32;;;97.82;;
56116;SDS011;41989;45.356;20.392;2023-12-29T07:41:53;156.68;;;102.00;;
56116;SDS011;41989;45.356;20.392;2023-12-29T07:44:19;180.00;;;109.38;;
56116;SDS011;41989;45.356;20.392;2023-12-29T07:46:45;146.68;;;100.55;;
56116;SDS011;41989;45.356;20.392;2023-12-29T07:49:11;165.68;;;103.10;;
56116;SDS011;41989;45.356;20.392;2023-12-29T07:51:41;162.95;;;104.30;;
56116;SDS011;41989;45.356;20.392;2023-12-29T07:54:08;126.05;;;83.65;;
56116;SDS011;41989;45.356;20.392;2023-12-29T07:56:34;156.88;;;102.68;;
56116;SDS011;41989;45.356;20.392;2023-12-29T07:59:02;156.45;;;104.05;;
56116;SDS011;41989;45.356;20.392;2023-12-29T08:01:28;163.30;;;103.43;;
56116;SDS011;41989;45.356;20.392;2023-12-29T08:03:55;163.85;;;102.32;;
56116;SDS011;41989;45.356;20.392;2023-12-29T08:06:21;164.63;;;107.38;;
56116;SDS011;41989;45.356;20.392;2023-12-29T08:08:48;160.88;;;106.05;;
56116;SDS011;41989;45.356;20.392;2023-12-29T08:11:14;145.15;;;96.65;;
56116;SDS011;41989;45.356;20.392;2023-12-29T08:13:41;135.27;;;90.13;;
56116;SDS011;41989;45.356;20.392;2023-12-29T08:16:07;128.90;;;86.13;;
56116;SDS011;41989;45.356;20.392;2023-12-29T08:18:33;121.97;;;84.15;;
56116;SDS011;41989;45.356;20.392;2023-12-29T08:21:00;125.72;;;81.40;;
56116;SDS011;41989;45.356;20.392;2023-12-29T08:23:26;127.40;;;83.55;;
56116;SDS011;41989;45.356;20.392;2023-12-29T08:25:52;114.97;;;77.18;;
56116;SDS011;41989;45.356;20.392;2023-12-29T08:28:19;111.85;;;75.25;;
56116;SDS011;41989;45.356;20.392;2023-12-29T08:30:45;110.32;;;74.75;;
56116;SDS011;41989;45.356;20.392;2023-12-29T08:33:11;114.78;;;76.93;;
56116;SDS011;41989;45.356;20.392;2023-12-29T08:35:41;108.47;;;73.90;;
56116;SDS011;41989;45.356;20.392;2023-12-29T08:38:07;108.30;;;72.22;;
56116;SDS011;41989;45.356;20.392;2023-12-29T08:40:33;104.57;;;73.10;;
56116;SDS011;41989;45.356;20.392;2023-12-29T08:42:59;104.45;;;71.15;;
56116;SDS011;41989;45.356;20.392;2023-12-29T08:45:26;110.47;;;74.28;;
56116;SDS011;41989;45.356;20.392;2023-12-29T08:47:52;116.22;;;75.60;;
56116;SDS011;41989;45.356;20.392;2023-12-29T08:50:19;131.13;;;75.72;;
56116;SDS011;41989;45.356;20.392;2023-12-29T08:52:46;112.82;;;72.50;;
56116;SDS011;41989;45.356;20.392;2023-12-29T08:55:13;113.32;;;71.60;;
56116;SDS011;41989;45.356;20.392;2023-12-29T08:57:39;112.10;;;71.47;;
56116;SDS011;41989;45.356;20.392;2023-12-29T09:00:05;111.68;;;72.38;;
56116;SDS011;41989;45.356;20.392;2023-12-29T09:02:31;117.90;;;77.20;;
56116;SDS011;41989;45.356;20.392;2023-12-29T09:04:57;132.18;;;87.28;;
56116;SDS011;41989;45.356;20.392;2023-12-29T09:07:23;122.38;;;80.18;;
56116;SDS011;41989;45.356;20.392;2023-12-29T09:09:50;121.28;;;79.97;;
56116;SDS011;41989;45.356;20.392;2023-12-29T09:12:16;122.40;;;78.07;;
56116;SDS011;41989;45.356;20.392;2023-12-29T09:14:42;117.13;;;76.28;;
56116;SDS011;41989;45.356;20.392;2023-12-29T09:17:08;111.32;;;74.60;;
56116;SDS011;41989;45.356;20.392;2023-12-29T09:19:34;107.03;;;73.65;;
56116;SDS011;41989;45.356;20.392;2023-12-29T09:22:00;105.85;;;71.93;;
56116;SDS011;41989;45.356;20.392;2023-12-29T09:24:27;118.32;;;80.25;;
56116;SDS011;41989;45.356;20.392;2023-12-29T09:26:53;100.57;;;67.45;;
56116;SDS011;41989;45.356;20.392;2023-12-29T09:29:19;94.50;;;64.93;;
56116;SDS011;41989;45.356;20.392;2023-12-29T09:31:45;101.28;;;69.85;;
56116;SDS011;41989;45.356;20.392;2023-12-29T09:34:12;93.82;;;63.58;;
56116;SDS011;41989;45.356;20.392;2023-12-29T09:36:38;101.45;;;67.32;;
56116;SDS011;41989;45.356;20.392;2023-12-29T09:39:04;94.05;;;62.72;;
56116;SDS011;41989;45.356;20.392;2023-12-29T09:41:31;84.15;;;57.80;;
56116;SDS011;41989;45.356;20.392;2023-12-29T09:43:57;79.40;;;54.50;;
56116;SDS011;41989;45.356;20.392;2023-12-29T09:46:23;72.38;;;52.65;;
56116;SDS011;41989;45.356;20.392;2023-12-29T09:48:52;79.68;;;50.67;;
56116;SDS011;41989;45.356;20.392;2023-12-29T09:51:21;74.70;;;50.58;;
56116;SDS011;41989;45.356;20.392;2023-12-29T09:53:49;70.15;;;47.95;;
56116;SDS011;41989;45.356;20.392;2023-12-29T09:56:17;71.57;;;48.92;;
56116;SDS011;41989;45.356;20.392;2023-12-29T09:58:43;65.93;;;43.95;;
56116;SDS011;41989;45.356;20.392;2023-12-29T10:01:12;57.60;;;41.95;;
56116;SDS011;41989;45.356;20.392;2023-12-29T10:03:38;60.85;;;43.35;;
56116;SDS011;41989;45.356;20.392;2023-12-29T10:06:06;56.78;;;39.03;;
56116;SDS011;41989;45.356;20.392;2023-12-29T10:08:33;57.50;;;40.17;;
56116;SDS011;41989;45.356;20.392;2023-12-29T10:11:00;60.70;;;40.00;;
56116;SDS011;41989;45.356;20.392;2023-12-29T10:13:26;58.22;;;38.20;;
56116;SDS011;41989;45.356;20.392;2023-12-29T10:16:00;56.65;;;36.55;;
56116;SDS011;41989;45.356;20.392;2023-12-29T10:18:28;62.70;;;41.33;;
56116;SDS011;41989;45.356;20.392;2023-12-29T10:21:17;58.67;;;39.80;;
56116;SDS011;41989;45.356;20.392;2023-12-29T10:23:55;54.60;;;39.05;;
56116;SDS011;41989;45.356;20.392;2023-12-29T10:26:22;56.28;;;38.42;;
56116;SDS011;41989;45.356;20.392;2023-12-29T10:28:49;55.95;;;39.03;;
56116;SDS011;41989;45.356;20.392;2023-12-29T10:31:15;56.60;;;40.60;;
56116;SDS011;41989;45.356;20.392;2023-12-29T10:33:41;60.05;;;39.80;;
56116;SDS011;41989;45.356;20.392;2023-12-29T10:36:07;52.13;;;36.63;;
56116;SDS011;41989;45.356;20.392;2023-12-29T10:38:38;51.88;;;37.53;;
56116;SDS011;41989;45.356;20.392;2023-12-29T10:41:13;54.38;;;38.03;;
56116;SDS011;41989;45.356;20.392;2023-12-29T10:43:40;77.35;;;45.78;;
56116;SDS011;41989;45.356;20.392;2023-12-29T10:46:08;58.05;;;39.90;;
56116;SDS011;41989;45.356;20.392;2023-12-29T10:48:37;55.25;;;33.03;;
56116;SDS011;41989;45.356;20.392;2023-12-29T10:51:04;52.63;;;35.65;;
56116;SDS011;41989;45.356;20.392;2023-12-29T10:53:31;51.92;;;34.70;;
56116;SDS011;41989;45.356;20.392;2023-12-29T10:55:57;51.58;;;35.47;;
56116;SDS011;41989;45.356;20.392;2023-12-29T10:58:26;56.05;;;36.55;;
56116;SDS011;41989;45.356;20.392;2023-12-29T11:03:21;57.78;;;38.28;;
56116;SDS011;41989;45.356;20.392;2023-12-29T11:05:47;52.10;;;36.30;;
56116;SDS011;41989;45.356;20.392;2023-12-29T11:08:15;46.72;;;32.40;;
56116;SDS011;41989;45.356;20.392;2023-12-29T11:10:42;51.72;;;36.13;;
56116;SDS011;41989;45.356;20.392;2023-12-29T11:13:10;56.40;;;36.13;;
56116;SDS011;41989;45.356;20.392;2023-12-29T11:15:41;51.63;;;35.75;;
56116;SDS011;41989;45.356;20.392;2023-12-29T11:18:09;54.70;;;38.38;;
56116;SDS011;41989;45.356;20.392;2023-12-29T11:20:37;53.00;;;35.63;;
56116;SDS011;41989;45.356;20.392;2023-12-29T11:23:04;47.45;;;32.65;;
56116;SDS011;41989;45.356;20.392;2023-12-29T11:25:32;51.40;;;32.47;;
56116;SDS011;41989;45.356;20.392;2023-12-29T11:27:59;46.58;;;32.80;;
56116;SDS011;41989;45.356;20.392;2023-12-29T11:30:26;51.58;;;34.97;;
56116;SDS011;41989;45.356;20.392;2023-12-29T11:32:57;47.17;;;32.35;;
56116;SDS011;41989;45.356;20.392;2023-12-29T11:35:29;53.63;;;31.98;;
56116;SDS011;41989;45.356;20.392;2023-12-29T11:42:52;47.80;;;29.63;;
56116;SDS011;41989;45.356;20.392;2023-12-29T11:45:29;47.00;;;29.35;;
56116;SDS011;41989;45.356;20.392;2023-12-29T11:48:02;44.05;;;32.45;;
56116;SDS011;41989;45.356;20.392;2023-12-29T11:50:29;47.85;;;32.92;;
56116;SDS011;41989;45.356;20.392;2023-12-29T11:52:56;59.95;;;39.15;;
56116;SDS011;41989;45.356;20.392;2023-12-29T11:55:24;58.10;;;35.90;;
56116;SDS011;41989;45.356;20.392;2023-12-29T11:57:53;50.97;;;32.38;;
56116;SDS011;41989;45.356;20.392;2023-12-29T12:00:19;49.00;;;33.45;;
56116;SDS011;41989;45.356;20.392;2023-12-29T12:02:46;49.00;;;33.15;;
56116;SDS011;41989;45.356;20.392;2023-12-29T12:05:20;43.38;;;31.48;;
56116;SDS011;41989;45.356;20.392;2023-12-29T12:08:00;79.03;;;47.78;;
56116;SDS011;41989;45.356;20.392;2023-12-29T12:12:55;53.63;;;35.97;;
56116;SDS011;41989;45.356;20.392;2023-12-29T12:17:58;86.57;;;47.90;;
56116;SDS011;41989;45.356;20.392;2023-12-29T12:20:25;76.70;;;46.72;;
56116;SDS011;41989;45.356;20.392;2023-12-29T12:22:57;83.55;;;46.55;;
56116;SDS011;41989;45.356;20.392;2023-12-29T12:25:27;59.45;;;38.45;;
56116;SDS011;41989;45.356;20.392;2023-12-29T12:27:53;48.58;;;34.83;;
56116;SDS011;41989;45.356;20.392;2023-12-29T12:30:20;48.50;;;34.75;;
56116;SDS011;41989;45.356;20.392;2023-12-29T12:32:47;50.17;;;35.13;;
56116;SDS011;41989;45.356;20.392;2023-12-29T12:35:22;45.05;;;32.92;;
56116;SDS011;41989;45.356;20.392;2023-12-29T12:37:51;51.15;;;34.65;;
56116;SDS011;41989;45.356;20.392;2023-12-29T12:40:32;51.45;;;34.85;;
56116;SDS011;41989;45.356;20.392;2023-12-29T12:42:58;46.65;;;33.47;;
56116;SDS011;41989;45.356;20.392;2023-12-29T12:45:25;49.55;;;34.45;;
56116;SDS011;41989;45.356;20.392;2023-12-29T12:47:54;66.30;;;40.80;;
56116;SDS011;41989;45.356;20.392;2023-12-29T12:50:21;61.17;;;42.00;;
56116;SDS011;41989;45.356;20.392;2023-12-29T12:52:47;60.30;;;38.17;;
56116;SDS011;41989;45.356;20.392;2023-12-29T12:55:14;53.00;;;35.22;;
56116;SDS011;41989;45.356;20.392;2023-12-29T12:57:40;46.88;;;31.20;;
56116;SDS011;41989;45.356;20.392;2023-12-29T13:00:07;47.95;;;31.63;;
56116;SDS011;41989;45.356;20.392;2023-12-29T13:02:34;45.90;;;31.30;;
56116;SDS011;41989;45.356;20.392;2023-12-29T13:05:00;50.83;;;31.58;;
56116;SDS011;41989;45.356;20.392;2023-12-29T13:07:30;49.92;;;32.47;;
56116;SDS011;41989;45.356;20.392;2023-12-29T13:09:59;52.08;;;32.20;;
56116;SDS011;41989;45.356;20.392;2023-12-29T13:12:25;55.47;;;34.70;;
56116;SDS011;41989;45.356;20.392;2023-12-29T13:14:51;52.40;;;34.60;;
56116;SDS011;41989;45.356;20.392;2023-12-29T13:17:18;61.00;;;39.40;;
56116;SDS011;41989;45.356;20.392;2023-12-29T13:19:48;55.92;;;36.65;;
56116;SDS011;41989;45.356;20.392;2023-12-29T13:22:22;52.17;;;35.47;;
56116;SDS011;41989;45.356;20.392;2023-12-29T13:24:48;54.25;;;36.38;;
56116;SDS011;41989;45.356;20.392;2023-12-29T13:27:14;64.57;;;40.13;;
56116;SDS011;41989;45.356;20.392;2023-12-29T13:29:41;62.58;;;38.13;;
56116;SDS011;41989;45.356;20.392;2023-12-29T13:32:11;78.15;;;46.95;;
56116;SDS011;41989;45.356;20.392;2023-12-29T13:34:49;82.97;;;46.35;;
56116;SDS011;41989;45.356;20.392;2023-12-29T13:40:11;73.82;;;43.65;;
56116;SDS011;41989;45.356;20.392;2023-12-29T13:42:40;85.47;;;49.78;;
56116;SDS011;41989;45.356;20.392;2023-12-29T13:45:07;70.55;;;42.08;;
56116;SDS011;41989;45.356;20.392;2023-12-29T13:47:37;98.18;;;57.55;;
56116;SDS011;41989;45.356;20.392;2023-12-29T13:50:04;77.55;;;49.00;;
56116;SDS011;41989;45.356;20.392;2023-12-29T13:52:31;78.00;;;49.28;;
56116;SDS011;41989;45.356;20.392;2023-12-29T13:54:57;80.95;;;52.05;;
56116;SDS011;41989;45.356;20.392;2023-12-29T13:57:33;77.25;;;46.25;;
56116;SDS011;41989;45.356;20.392;2023-12-29T14:00:18;66.15;;;42.35;;
56116;SDS011;41989;45.356;20.392;2023-12-29T14:08:16;61.42;;;42.00;;
56116;SDS011;41989;45.356;20.392;2023-12-29T14:10:36;71.97;;;47.20;;
56116;SDS011;41989;45.356;20.392;2023-12-29T14:13:12;72.15;;;45.80;;
56116;SDS011;41989;45.356;20.392;2023-12-29T14:15:39;71.43;;;46.30;;
56116;SDS011;41989;45.356;20.392;2023-12-29T14:20:35;60.70;;;41.42;;